createdAt,value
2023-05-22T00:00:00.382Z,5.0
2023-05-22T00:05:00.648Z,4.0
2023-05-22T00:10:00.627Z,8.3
2023-05-22T00:15:00.384Z,5.0
2023-05-22T00:20:00.406Z,8.6
2023-05-22T00:25:00.339Z,8.3
2023-05-22T00:30:00.414Z,6.5
2023-05-22T00:35:00.324Z,4.3
2023-05-22T00:40:00.439Z,1.8
2023-05-22T00:45:00.452Z,6.8
2023-05-22T00:50:00.329Z,6.1
2023-05-22T00:55:00.508Z,4.7
2023-05-22T01:00:00.452Z,7.2
2023-05-22T01:05:00.351Z,6.8
2023-05-22T01:10:00.419Z,5.4
2023-05-22T01:15:00.364Z,6.5
2023-05-22T01:20:00.374Z,5.0
2023-05-22T01:25:00.417Z,2.2
2023-05-22T01:30:00.344Z,3.2
2023-05-22T01:35:00.378Z,2.5
2023-05-22T01:40:00.396Z,0.0
2023-05-22T01:45:00.390Z,0.0
2023-05-22T01:50:00.417Z,0.0
2023-05-22T01:55:00.408Z,2.2
2023-05-22T02:00:00.384Z,2.9
2023-05-22T02:05:00.462Z,5.8
2023-05-22T02:10:00.384Z,5.8
2023-05-22T02:15:00.399Z,5.8
2023-05-22T02:20:00.383Z,6.5
2023-05-22T02:25:00.314Z,3.2
2023-05-22T02:30:00.416Z,2.5
2023-05-22T02:35:00.587Z,3.2
2023-05-22T02:40:00.362Z,2.9
2023-05-22T02:45:00.400Z,3.2
2023-05-22T02:50:00.402Z,2.2
2023-05-22T02:55:00.316Z,2.9
2023-05-22T03:00:00.594Z,2.5
2023-05-22T03:05:00.361Z,0.0
2023-05-22T03:10:00.381Z,2.5
2023-05-22T03:15:00.385Z,1.8
2023-05-22T03:20:00.417Z,1.4
2023-05-22T03:25:00.401Z,1.4
2023-05-22T03:30:00.418Z,0.0
2023-05-22T03:35:00.328Z,0.0
2023-05-22T03:40:00.444Z,0.0
2023-05-22T03:45:00.488Z,0.0
2023-05-22T03:50:00.416Z,2.2
2023-05-22T03:55:00.392Z,2.2
2023-05-22T04:00:00.388Z,3.6
2023-05-22T04:05:00.618Z,5.0
2023-05-22T04:10:00.502Z,2.9
2023-05-22T04:15:00.377Z,4.7
2023-05-22T04:20:00.454Z,2.9
2023-05-22T04:25:00.350Z,3.2
2023-05-22T04:30:00.930Z,3.6
2023-05-22T04:35:00.750Z,6.5
2023-05-22T04:40:00.424Z,1.8
2023-05-22T04:45:00.360Z,4.7
2023-05-22T04:50:00.452Z,3.2
2023-05-22T04:55:05.916Z,4.3
2023-05-22T05:00:00.450Z,3.2
2023-05-22T05:05:00.513Z,5.0
2023-05-22T05:10:00.382Z,6.1
2023-05-22T05:15:00.380Z,6.1
2023-05-22T05:20:00.381Z,5.0
2023-05-22T05:25:00.346Z,5.0
2023-05-22T05:30:00.454Z,7.9
2023-05-22T05:35:00.422Z,8.3
2023-05-22T05:40:00.436Z,6.8
2023-05-22T05:45:00.357Z,7.6
2023-05-22T05:50:00.488Z,6.8
2023-05-22T05:55:00.359Z,8.3
2023-05-22T06:00:00.570Z,8.6
2023-05-22T06:05:00.438Z,2.5
2023-05-22T06:10:00.463Z,5.8
2023-05-22T06:15:00.328Z,6.8
2023-05-22T06:20:00.512Z,10.8
2023-05-22T06:25:00.407Z,18.7
2023-05-22T06:30:00.495Z,11.9
2023-05-22T06:35:00.330Z,7.6
2023-05-22T06:40:00.475Z,8.6
2023-05-22T06:45:00.676Z,14.4
2023-05-22T06:50:00.508Z,14.0
2023-05-22T06:55:00.489Z,12.2
2023-05-22T07:00:00.532Z,8.3
2023-05-22T07:05:00.438Z,6.8
2023-05-22T07:10:00.395Z,0.0
2023-05-22T07:15:00.540Z,8.6
2023-05-22T07:20:00.545Z,8.3
2023-05-22T07:25:00.399Z,16.9
2023-05-22T07:30:00.381Z,13.0
2023-05-22T07:35:00.323Z,14.0
2023-05-22T07:40:00.559Z,11.2
2023-05-22T07:45:00.383Z,11.2
2023-05-22T07:50:00.551Z,10.8
2023-05-22T07:55:00.461Z,15.8
2023-05-22T08:00:00.573Z,15.8
2023-05-22T08:05:00.738Z,10.8
2023-05-22T08:10:00.611Z,15.1
2023-05-22T08:15:00.495Z,14.4
2023-05-22T08:20:00.968Z,10.1
2023-05-22T08:25:00.421Z,16.2
2023-05-22T08:30:00.640Z,16.9
2023-05-22T08:35:00.333Z,15.1
2023-05-22T08:40:00.428Z,14.8
2023-05-22T08:45:00.533Z,13.7
2023-05-22T08:50:00.441Z,9.0
2023-05-22T08:55:00.389Z,16.9
2023-05-22T09:00:00.429Z,16.9
2023-05-22T09:05:00.586Z,15.8
2023-05-22T09:10:00.389Z,16.9
2023-05-22T09:15:00.377Z,19.1
2023-05-22T09:20:00.470Z,10.4
2023-05-22T09:25:00.445Z,13.7
2023-05-22T09:30:00.428Z,19.1
2023-05-22T09:35:00.635Z,11.9
2023-05-22T09:40:00.473Z,22.3
2023-05-22T09:45:00.439Z,11.2
2023-05-22T09:50:00.464Z,11.5
2023-05-22T09:55:00.391Z,8.3
2023-05-22T10:00:00.557Z,14.0
2023-05-22T10:05:00.368Z,17.6
2023-05-22T10:10:00.360Z,19.4
2023-05-22T10:15:00.431Z,15.1
2023-05-22T10:20:00.461Z,23.4
2023-05-22T10:25:00.361Z,8.3
2023-05-22T10:30:00.543Z,10.1
2023-05-22T10:35:00.789Z,11.5
2023-05-22T10:40:00.386Z,18.4
2023-05-22T10:45:00.378Z,8.3
2023-05-22T10:50:00.548Z,13.0
2023-05-22T10:55:00.362Z,20.9
2023-05-22T11:00:00.492Z,17.6
2023-05-22T11:05:00.546Z,14.8
2023-05-22T11:10:00.438Z,13.7
2023-05-22T11:15:00.389Z,16.9
2023-05-22T11:20:00.786Z,15.8
2023-05-22T11:25:00.624Z,13.7
2023-05-22T11:30:00.579Z,10.8
2023-05-22T11:35:00.443Z,16.9
2023-05-22T11:40:00.461Z,13.7
2023-05-22T11:45:00.433Z,16.2
2023-05-22T11:50:00.390Z,22.7
2023-05-22T11:55:00.360Z,23.8
2023-05-22T12:00:00.655Z,16.6
2023-05-22T12:05:00.466Z,8.6
2023-05-22T12:10:00.430Z,14.8
2023-05-22T12:15:00.428Z,19.4
2023-05-22T12:20:00.432Z,16.6
2023-05-22T12:25:00.374Z,22.0
2023-05-22T12:30:00.686Z,15.8
2023-05-22T12:35:00.428Z,18.7
2023-05-22T12:40:00.497Z,12.2
2023-05-22T12:45:00.898Z,20.9
2023-05-22T12:50:00.402Z,19.8
2023-05-22T12:55:00.602Z,18.7
2023-05-22T13:00:00.491Z,15.1
2023-05-22T13:05:00.562Z,14.8
2023-05-22T13:10:00.389Z,17.6
2023-05-22T13:15:00.507Z,11.5
2023-05-22T13:20:00.432Z,11.2
2023-05-22T13:25:00.369Z,10.1
2023-05-22T13:30:00.472Z,14.8
2023-05-22T13:35:00.380Z,6.8
2023-05-22T13:40:00.480Z,13.3
2023-05-22T13:45:00.430Z,8.3
2023-05-22T13:50:00.537Z,14.0
2023-05-22T13:55:00.545Z,15.5
2023-05-22T14:00:00.443Z,17.3
2023-05-22T14:05:00.497Z,15.8
2023-05-22T14:10:02.086Z,11.2
2023-05-22T14:15:00.526Z,11.9
2023-05-22T14:20:00.624Z,15.8
2023-05-22T14:25:00.466Z,14.8
2023-05-22T14:30:00.456Z,8.6
2023-05-22T14:35:00.375Z,10.4
2023-05-22T14:40:00.379Z,10.4
2023-05-22T14:45:00.441Z,6.5
2023-05-22T14:50:20.512Z,15.1
2023-05-22T14:55:00.351Z,11.5
2023-05-22T15:00:00.519Z,16.6
2023-05-22T15:05:00.787Z,15.5
2023-05-22T15:10:00.428Z,15.1
2023-05-22T15:15:00.430Z,19.4
2023-05-22T15:20:00.570Z,15.5
2023-05-22T15:25:00.569Z,10.1
2023-05-22T15:30:00.479Z,12.2
2023-05-22T15:35:00.542Z,9.7
2023-05-22T15:40:00.421Z,6.1
2023-05-22T15:45:00.505Z,15.1
2023-05-22T15:50:00.477Z,8.3
2023-05-22T15:55:00.757Z,12.6
2023-05-22T16:00:00.684Z,9.7
2023-05-22T16:05:00.334Z,8.6
2023-05-22T16:10:00.563Z,6.8
2023-05-22T16:15:05.258Z,7.6
2023-05-22T16:20:00.486Z,5.4
2023-05-22T16:25:00.369Z,18.4
2023-05-22T16:30:00.435Z,10.1
2023-05-22T16:35:00.460Z,6.8
2023-05-22T16:40:00.600Z,14.8
2023-05-22T16:45:00.464Z,14.8
2023-05-22T16:50:00.773Z,14.4
2023-05-22T16:55:00.386Z,18.7
2023-05-22T17:00:01.303Z,15.5
2023-05-22T17:05:00.474Z,2.5
2023-05-22T17:10:00.798Z,2.9
2023-05-22T17:15:00.552Z,11.9
2023-05-22T17:20:00.657Z,10.8
2023-05-22T17:25:00.386Z,10.8
2023-05-22T17:30:00.917Z,17.6
2023-05-22T17:35:00.436Z,9.4
2023-05-22T17:40:00.603Z,11.9
2023-05-22T17:45:00.655Z,11.5
2023-05-22T17:50:00.526Z,8.6
2023-05-22T17:55:00.425Z,10.4
2023-05-22T18:00:00.540Z,8.3
2023-05-22T18:05:00.425Z,10.4
2023-05-22T18:10:00.476Z,9.0
2023-05-22T18:15:00.696Z,14.8
2023-05-22T18:20:00.432Z,8.3
2023-05-22T18:25:00.433Z,5.4
2023-05-22T18:30:00.442Z,3.6
2023-05-22T18:35:00.433Z,6.5
2023-05-22T18:40:00.689Z,4.3
2023-05-22T18:45:00.548Z,5.8
2023-05-22T18:50:00.526Z,6.5
2023-05-22T18:55:00.438Z,3.2
2023-05-22T19:00:00.490Z,4.0
2023-05-22T19:05:00.837Z,3.2
2023-05-22T19:10:00.475Z,5.0
2023-05-22T19:15:00.374Z,2.2
2023-05-22T19:20:00.481Z,2.2
2023-05-22T19:25:00.458Z,3.6
2023-05-22T19:30:00.396Z,2.5
2023-05-22T19:35:00.394Z,1.4
2023-05-22T19:40:00.608Z,2.5
2023-05-22T19:45:00.402Z,3.2
2023-05-22T19:50:00.433Z,1.4
2023-05-22T19:55:00.410Z,2.9
2023-05-22T20:00:00.392Z,1.4
2023-05-22T20:05:00.412Z,2.9
2023-05-22T20:10:00.419Z,2.2
2023-05-22T20:15:00.374Z,1.8
2023-05-22T20:20:00.704Z,2.2
2023-05-22T20:25:00.347Z,2.9
2023-05-22T20:30:00.789Z,0.0
2023-05-22T20:35:00.329Z,0.0
2023-05-22T20:40:00.416Z,1.4
2023-05-22T20:45:00.531Z,0.0
2023-05-22T20:50:00.381Z,2.5
2023-05-22T20:55:00.334Z,2.5
2023-05-22T21:00:00.403Z,3.2
2023-05-22T21:05:00.383Z,2.2
2023-05-22T21:10:00.397Z,1.4
2023-05-22T21:15:00.368Z,1.4
2023-05-22T21:20:00.529Z,0.0
2023-05-22T21:25:00.439Z,0.0
2023-05-22T21:30:00.553Z,0.0
2023-05-22T21:35:00.368Z,5.0
2023-05-22T21:40:00.573Z,0.0
2023-05-22T21:45:00.908Z,0.0
2023-05-22T21:50:02.886Z,2.2
2023-05-22T21:55:00.438Z,1.4
2023-05-22T22:00:00.557Z,0.0
2023-05-22T22:05:00.330Z,2.5
2023-05-22T22:10:00.378Z,1.4
2023-05-22T22:15:00.369Z,0.0
2023-05-22T22:20:00.384Z,1.4
2023-05-22T22:25:00.459Z,1.4
2023-05-22T22:30:00.432Z,0.0
2023-05-22T22:35:00.387Z,0.0
2023-05-22T22:40:00.480Z,0.0
2023-05-22T22:45:00.357Z,0.0
2023-05-22T22:50:00.426Z,0.0
2023-05-22T22:55:00.759Z,0.0
2023-05-22T23:00:00.456Z,0.0
2023-05-22T23:05:00.855Z,0.0
2023-05-22T23:10:00.358Z,0.0
2023-05-22T23:15:00.378Z,0.0
2023-05-22T23:20:00.387Z,0.0
2023-05-22T23:25:00.509Z,0.0
2023-05-22T23:30:00.426Z,0.0
2023-05-22T23:35:00.423Z,0.0
2023-05-22T23:40:00.493Z,3.6
2023-05-22T23:45:00.352Z,3.2
2023-05-22T23:50:00.639Z,0.0
2023-05-22T23:55:00.333Z,2.5
